Dauntless Aviation
Airports Asia China
ZGSZ
SZX

Shenzhen Bao'an International Airport

Shenzhen, CHINA

Airport Info
Suggest Updated Information for this Airport

Location

Latitude / Longitude: 22°38'21"N / 113°48'39"E
  22°38.358'N / 113°48.66'E
  22.6393 / 113.8110

Nearby radio navigation aids

QJ SHENZHEN NDB. 155.7° 10.4nm from QJ to field.
SZX SHENZHEN VOR/DME on field.

Runway Information

Runway 15 /33

Dimensions: 11155 x 148 ft.
Surface: ASP
 
Runway 15
Runway 33
Latitude: 22.651889 22.624778
Longitude: 113.803903 113.819431
Elevation: 12 ft. 12 ft.
Runway true heading: 153 333
 

Instrument Procedures

  Aerodrome Chart
  Aerodrome Chart
  Aerodrome Chart
  Aerodrome Parking/Docking Chart

STARs (Standard Terminal Arrivals)

  STAR RNAV Rwy 15
  STAR RNAV Rwy 16
  STAR RNAV Rwy 33
  STAR RNAV Rwy 34
  STAR Rwy 15/16
  STAR Rwy 33/34

IAPs (Instrument Approach Procedures)

  Aircraft Standard Push Back Procedure
  Aerodrome Obstacle Chart Rwy 15/33
  Aerodrome Obstacle Chart Rwy 16/34
  RNAV ILS/DME Rwy 15
  RNAV ILS/DME Rwy 16
  RNAV ILS/DME Rwy 33
  RNAV ILS/DME Rwy 34
  ILS/DME Rwy 15
  ILS/DME Rwy 16
  ILS/DME Rwy 33
  ILS/DME Rwy 33
  ILS/DME Rwy 34
  ILS/DME Rwy 34

Departure Procedures

  SID RNAV Rwy 15
  SID RNAV Rwy 16
  SID RNAV Rwy 33
  SID RNAV Rwy 34
  SID Rwy 15
  SID Rwy 16
  SID Rwy 33
  SID Rwy 34
Satellite photo at:
Airport distance calculator
From:
Weather Reports

METAR

ZGSZ

ZGSZ 110200Z 02008MPS CAVOK 15/09 Q1024 NOSIG
VHHH
20.2nm SE
VHHH 110200Z 35013KT 9999 FEW025 17/10 Q1023 NOSIG
VMMC
32.0nm S
VMMC 110200Z 35019KT 9000 FEW020 16/12 Q1022 NOSIG

TAF

ZGSZ
TAF ZGSZ 101915Z 1100/1124 02004MPS 6000 SCT030 TX17/1106Z TN12/1122Z
VHHH
20.2nm SE
TAF VHHH 102300Z 1100/1206 36010KT 9000 FEW025 TX19/1106Z TX16/1206Z TN13/1123Z TEMPO 1112/1124 36020KT
VMMC
32.0nm S
TAF VMMC 102302Z 1100/1206 36018KT 9999 FEW020 SCT030 TEMPO 1112/1124 35022G32KT
Safelog

 

Dauntless Aviation

© 2007-2018 Dauntless Aviation, all rights reserved
Information provided via PilotNav comes from a variety of official and unofficial data sources. As errors are possible, do not use PilotNav for primary flight planning purposes. Verify any information that you receive via PilotNav with current and canonical charts and other official documents. The material in this database is subject to database copyrights held by Dauntless Aviation and may not be copied without the express permission of Dauntless Aviation - licenses for use of part of all of this data are available for purchase; enquire via the Dauntless Aviation helpdesk. A number of mechanisms and markers exist in the database to protect against and identify infringement / copyright. Automated queries against this website are stictly prohibited, and all activity is logged and analyzed.